AirNav   Air Wisconsin Up To $57,000 Bonus
 
 519 users online  

MO45 Sky-Vu Airport
Montgomery City, Missouri, USA

GOING TO MONTGOMERY CITY?


FAA INFORMATION EFFECTIVE 26 JANUARY 2023

Location

FAA Identifier: MO45
Lat/Long: 38-53-32.0000N 091-33-57.5900W
38-53.533333N 091-33.959833W
38.8922222,-91.5659972
(estimated)
Elevation: 800 ft. / 244 m (estimated)
Variation: 01E (2000)
From city: 6 miles SW of MONTGOMERY CITY, MO
Time zone: UTC -6 (UTC -5 during Daylight Saving Time)
Zip code: 63361

Airport Operations

Airport use: Private use. Permission required prior to landing
Activation date: 12/2000
Control tower: no
ARTCC: KANSAS CITY CENTER
FSS: COLUMBIA FLIGHT SERVICE STATION
Attendance: UNATNDD
Wind indicator: yes
Segmented circle: no

Airport Communications

WX AWOS-3PT at MYJ (20 nm NW): 120.575 (573-581-7868)

Nearby radio navigation aids

VOR radial/distance  VOR name  Freq  Var
HLVr111/29.4HALLSVILLE VORTAC114.2006E
FTZr288/30.2FORISTELL VORTAC110.8005E
COUr081/30.9COLUMBIA VOR/DME110.2000E

Airport Services

Runway Information

Runway 1/19

Dimensions: 1700 x 75 ft. / 518 x 23 m
Surface: turf
Runway edge markings: RY 01/19 OUTLINED WITH RED FLORESCENT LGTS.
RUNWAY 1  RUNWAY 19
Traffic pattern: leftleft
Obstructions: 50 ft. trees, 300 ft. from runway50 ft. trees, 300 ft. from runway

Airport Ownership and Management from official FAA records

Ownership: Privately-owned
Owner: KARMUN L. KING
199 HWY J
MONTGOMERY CITY, MO 63361
Phone 573-564-8014
Manager: KARMUN L. KING
199 HWY J
MONTGOMERY CITY, MO 63361
Phone 573-564-8014

Airport Operational Statistics

Aircraft based on the field: 1
Single engine airplanes: 1
    

Additional Remarks

FOR CD CTC MIZZOU APCH AT 417-868-5620/5619.

Instrument Procedures

There are no published instrument procedures at MO45.

Some nearby airports with instrument procedures:

KMYJ - Mexico Memorial Airport (20 nm NW)
KFTT - Elton Hensley Memorial Airport (21 nm W)
KCOU - Columbia Regional Airport (31 nm W)
KFYG - Washington Regional Airport (32 nm SE)
H19 - Bowling Green Municipal Airport (33 nm NE)
 
Loc | Ops | Rwys | IFR | FBO | Links
Com | Nav | Svcs | Stats | Notes
Area around MO45 (Sky-Vu Airport)
 
Road maps at: MapQuest Bing Google
 
Aerial photo
No photo
 
Sectional chart

 
Airport distance calculator
Flying to Sky-Vu Airport? Find the distance to fly.

From to MO45

Sunrise and sunset
Times for 05-Feb-2023
 Local
(UTC-6)
 Zulu
(UTC)
Morning civil twilight06:4212:42
Sunrise07:1013:10
Sunset17:3123:31
Evening civil twilight17:5923:59

Current date and time
Zulu (UTC)  05-Feb-2023 06:42:38
Local (UTC-6)  05-Feb-2023 00:42:38
 
METAR
KMYJ 
20nm NW 
050615Z AUTO 19011KT 10SM CLR 03/M02 A2997 RMK AO2
KCOU 
31nm W 
050554Z AUTO 19014G23KT 10SM CLR 06/M02 A2999 RMK AO2 SLP155 T00611022 10094 20061 401331044 58011
KJEF 
32nm SW 
050553Z AUTO 19008KT 10SM CLR 08/M02 A3001 RMK AO2 SLP154 T00781022 10111 20072 401441056 58013 $
TAF
KCOU 
31nm W 
050520Z 0506/0606 18014KT P6SM SCT250 FM050700 21013G21KT P6SM SCT250 FM051200 27009KT P6SM FEW250 FM060000 VRB03KT P6SM SKC
KJEF 
32nm SW 
050520Z 0506/0606 18012KT P6SM SCT250 FM050700 21013G21KT P6SM SCT250 FM051200 27009KT P6SM FEW250 FM060000 VRB03KT P6SM SKC
NOTAMs
Click for the latest NOTAMs
NOTAMs are issued by the DoD/FAA and will open in a separate window not controlled by AirNav.

 

 
 

Would you like to see your business listed on this page?

 If your business provides an interesting product or service to pilots, flight crews, aircraft, or users of the Sky-Vu Airport, you should consider listing it here.  To start the listing process, click on the button below
 
Add a business
 

Other Pages about Sky-Vu Airport

Update a link
 
Copyright © AirNav, LLC. All rights reserved. Privacy Policy  Contact